Time;durP1;ratioP1;P1;durP2;ratioP2;P2;SDS_P1;SDS_P2;PMS_P1;PMS_P2;Temp;Humidity;BMP_temperature;BMP_pressure;BME280_temperature;BME280_humidity;BME280_pressure;Samples;Min_cycle;Max_cycle;Signal;HPM_P1;HPM_P2
2023/09/28 00:02:03;;;;;;;15.57;2.80;;;;;;;;;;4952274;28;20038;-37
2023/09/28 00:04:32;;;;;;;21.17;2.87;;;;;;;;;;4954146;28;20401;-37
2023/09/28 00:06:59;;;;;;;17.58;2.75;;;;;;;;;;4952061;28;20050;-37
2023/09/28 00:09:30;;;;;;;18.58;2.67;;;;;;;;;;4951201;28;20043;-38
2023/09/28 00:11:57;;;;;;;14.30;2.28;;;;;;;;;;4960286;28;20122;-37
2023/09/28 00:14:25;;;;;;;19.83;3.35;;;;;;;;;;4958635;28;20128;-37
2023/09/28 00:16:52;;;;;;;16.47;2.30;;;;;;;;;;4960507;28;20042;-37
2023/09/28 00:19:20;;;;;;;21.52;2.55;;;;;;;;;;4967910;28;20049;-37
2023/09/28 00:21:47;;;;;;;12.63;1.92;;;;;;;;;;4949442;28;20065;-37
2023/09/28 00:24:15;;;;;;;18.27;3.50;;;;;;;;;;4966614;28;20055;-38
2023/09/28 00:26:47;;;;;;;16.33;2.40;;;;;;;;;;4951632;28;20058;-37
2023/09/28 00:29:13;;;;;;;12.87;2.60;;;;;;;;;;4964836;28;20053;-37
2023/09/28 00:31:41;;;;;;;14.95;1.77;;;;;;;;;;4953210;28;21106;-37
2023/09/28 00:34:11;;;;;;;14.32;1.77;;;;;;;;;;4965235;28;20042;-37
2023/09/28 00:36:37;;;;;;;18.13;2.53;;;;;;;;;;4962122;28;20038;-37
2023/09/28 00:39:07;;;;;;;18.58;2.67;;;;;;;;;;4957540;28;20104;-37
2023/09/28 00:41:35;;;;;;;12.87;2.37;;;;;;;;;;4957636;28;20069;-37
2023/09/28 00:44:04;;;;;;;18.30;2.40;;;;;;;;;;4950593;28;20043;-37
2023/09/28 00:46:33;;;;;;;32.88;2.83;;;;;;;;;;4956038;28;20046;-41
2023/09/28 00:49:03;;;;;;;21.42;2.13;;;;;;;;;;4950528;28;20082;-37
2023/09/28 00:51:32;;;;;;;17.08;2.55;;;;;;;;;;4968012;28;20501;-37
2023/09/28 00:54:00;;;;;;;11.30;1.43;;;;;;;;;;4951227;28;20641;-37
2023/09/28 00:56:29;;;;;;;19.63;2.67;;;;;;;;;;4964236;28;20034;-37
2023/09/28 00:58:56;;;;;;;16.63;2.67;;;;;;;;;;4952791;28;20586;-37
2023/09/28 01:01:29;;;;;;;15.07;1.73;;;;;;;;;;4960800;28;20047;-38
2023/09/28 01:04:00;;;;;;;13.43;2.13;;;;;;;;;;4962149;28;20045;-37
2023/09/28 01:06:30;;;;;;;18.67;3.50;;;;;;;;;;4953488;28;20612;-37
2023/09/28 01:08:58;;;;;;;20.10;3.65;;;;;;;;;;4964124;28;20613;-37
2023/09/28 01:11:28;;;;;;;16.40;2.08;;;;;;;;;;4956553;28;20062;-37
2023/09/28 01:13:55;;;;;;;12.90;2.28;;;;;;;;;;4958942;28;20121;-37
2023/09/28 01:16:24;;;;;;;14.55;2.50;;;;;;;;;;4968194;28;20042;-37
2023/09/28 01:18:53;;;;;;;18.27;2.63;;;;;;;;;;4964532;28;20049;-37
2023/09/28 01:21:21;;;;;;;17.65;2.63;;;;;;;;;;4956168;28;20057;-37
2023/09/28 01:23:49;;;;;;;16.15;2.42;;;;;;;;;;4960818;28;20126;-37
2023/09/28 01:26:17;;;;;;;22.30;2.78;;;;;;;;;;4950404;28;20042;-37
2023/09/28 01:28:44;;;;;;;17.45;2.42;;;;;;;;;;4965024;28;20077;-37
2023/09/28 01:31:13;;;;;;;16.70;2.37;;;;;;;;;;4932923;28;20506;-38
2023/09/28 01:33:40;;;;;;;15.25;2.42;;;;;;;;;;4964887;28;20106;-36
2023/09/28 01:36:10;;;;;;;16.77;2.08;;;;;;;;;;4963248;28;20121;-37
2023/09/28 01:38:40;;;;;;;16.17;2.80;;;;;;;;;;4964006;28;20042;-37
2023/09/28 01:41:11;;;;;;;15.05;2.55;;;;;;;;;;4953486;28;20109;-37
2023/09/28 01:43:41;;;;;;;16.17;2.07;;;;;;;;;;4958587;28;20465;-37
2023/09/28 01:46:11;;;;;;;13.10;2.10;;;;;;;;;;4960770;28;20100;-37
2023/09/28 01:48:38;;;;;;;20.40;4.35;;;;;;;;;;4963629;28;20121;-37
2023/09/28 01:51:06;;;;;;;15.48;1.95;;;;;;;;;;4954317;28;20532;-37
2023/09/28 01:53:33;;;;;;;16.58;2.28;;;;;;;;;;4957592;28;20042;-37
2023/09/28 01:56:02;;;;;;;20.00;3.43;;;;;;;;;;4961862;28;20046;-37
2023/09/28 01:58:31;;;;;;;14.50;1.98;;;;;;;;;;4951592;28;20047;-37
2023/09/28 02:00:59;;;;;;;17.83;2.50;;;;;;;;;;4966972;28;20134;-37
2023/09/28 02:03:26;;;;;;;12.27;2.00;;;;;;;;;;4956683;28;20050;-38
2023/09/28 02:05:53;;;;;;;14.27;2.45;;;;;;;;;;4972470;28;20042;-37
2023/09/28 02:08:21;;;;;;;14.03;2.30;;;;;;;;;;4925472;28;20061;-37
2023/09/28 02:10:48;;;;;;;14.23;2.25;;;;;;;;;;4956626;28;20054;-37
2023/09/28 02:13:15;;;;;;;16.73;2.25;;;;;;;;;;4969722;28;20472;-37
2023/09/28 02:15:45;;;;;;;18.75;3.22;;;;;;;;;;4966448;28;20034;-37
2023/09/28 02:18:11;;;;;;;17.38;2.10;;;;;;;;;;4959925;28;20046;-38
2023/09/28 02:20:39;;;;;;;16.30;2.13;;;;;;;;;;4963351;28;20133;-37
2023/09/28 02:23:09;;;;;;;17.70;2.42;;;;;;;;;;4953570;28;21297;-37
2023/09/28 02:25:37;;;;;;;16.58;2.55;;;;;;;;;;4958770;28;20046;-37
2023/09/28 02:28:06;;;;;;;16.70;2.45;;;;;;;;;;4963890;28;20049;-37
2023/09/28 02:30:34;;;;;;;11.60;1.90;;;;;;;;;;4964118;28;20042;-38
2023/09/28 02:33:02;;;;;;;16.37;2.27;;;;;;;;;;4953034;28;20042;-37
2023/09/28 02:35:30;;;;;;;14.20;1.77;;;;;;;;;;4982916;28;20416;-37
2023/09/28 02:37:57;;;;;;;13.90;1.90;;;;;;;;;;4948153;28;20061;-37
2023/09/28 02:40:25;;;;;;;14.25;1.98;;;;;;;;;;4960685;28;20038;-37
2023/09/28 02:42:53;;;;;;;15.90;2.50;;;;;;;;;;4966759;28;20042;-37
2023/09/28 02:45:20;;;;;;;15.03;2.13;;;;;;;;;;4956494;28;20042;-37
2023/09/28 02:47:48;;;;;;;19.00;2.30;;;;;;;;;;4960687;28;20038;-37
2023/09/28 02:50:18;;;;;;;14.27;1.95;;;;;;;;;;4959243;28;20165;-37
2023/09/28 02:52:47;;;;;;;24.75;1.95;;;;;;;;;;4950391;28;20074;-39
2023/09/28 02:55:17;;;;;;;14.30;2.22;;;;;;;;;;4964567;28;20046;-37
2023/09/28 02:57:46;;;;;;;16.73;2.20;;;;;;;;;;4958145;28;20038;-37
2023/09/28 03:00:18;;;;;;;19.25;2.53;;;;;;;;;;4957726;28;20031;-37
2023/09/28 03:02:45;;;;;;;12.20;1.90;;;;;;;;;;4966202;28;20052;-37
2023/09/28 03:05:12;;;;;;;13.95;1.90;;;;;;;;;;4957258;28;20049;-37
2023/09/28 03:07:42;;;;;;;18.10;2.25;;;;;;;;;;4962731;28;20074;-37
2023/09/28 03:10:11;;;;;;;18.47;1.77;;;;;;;;;;4959177;28;20034;-37
2023/09/28 03:12:42;;;;;;;13.68;1.70;;;;;;;;;;4963229;28;20049;-38
2023/09/28 03:15:10;;;;;;;13.82;2.60;;;;;;;;;;4968789;28;20038;-37
2023/09/28 03:17:47;;;;;;;11.40;2.22;;;;;;;;;;4965636;28;20042;-38
2023/09/28 03:20:31;;;;;;;16.80;2.33;;;;;;;;;;4963092;28;20065;-40
2023/09/28 03:23:00;;;;;;;14.17;2.10;;;;;;;;;;4952974;28;20050;-37
2023/09/28 03:25:27;;;;;;;11.50;1.65;;;;;;;;;;4965141;28;20441;-37
2023/09/28 03:27:56;;;;;;;17.77;2.88;;;;;;;;;;4928114;28;20692;-37
2023/09/28 03:30:24;;;;;;;15.30;2.00;;;;;;;;;;4964599;28;20038;-37
2023/09/28 03:32:52;;;;;;;11.70;1.67;;;;;;;;;;4952338;28;20049;-37
2023/09/28 03:35:19;;;;;;;13.50;1.70;;;;;;;;;;4959656;28;20070;-37
2023/09/28 03:37:48;;;;;;;14.23;2.08;;;;;;;;;;4961555;28;20754;-37
2023/09/28 03:40:18;;;;;;;15.77;1.85;;;;;;;;;;4956111;28;20041;-37
2023/09/28 03:42:48;;;;;;;14.50;1.80;;;;;;;;;;4969926;28;20047;-37
2023/09/28 03:45:16;;;;;;;14.77;1.50;;;;;;;;;;4959774;28;20054;-37
2023/09/28 03:47:48;;;;;;;16.23;1.80;;;;;;;;;;4950784;28;20805;-38
2023/09/28 03:50:17;;;;;;;16.75;1.98;;;;;;;;;;4959551;28;20050;-37
2023/09/28 03:52:45;;;;;;;19.38;2.83;;;;;;;;;;4944908;28;20045;-37
2023/09/28 03:55:13;;;;;;;15.05;2.67;;;;;;;;;;4974001;28;20121;-38
2023/09/28 03:57:44;;;;;;;15.68;1.85;;;;;;;;;;4960652;28;20493;-37
2023/09/28 04:00:14;;;;;;;11.60;1.63;;;;;;;;;;4952501;28;21377;-42
2023/09/28 04:02:43;;;;;;;14.68;2.70;;;;;;;;;;4969526;28;20050;-37
2023/09/28 04:05:10;;;;;;;16.27;2.00;;;;;;;;;;4947220;28;20039;-37
2023/09/28 04:07:39;;;;;;;13.02;1.67;;;;;;;;;;4969616;28;20046;-37
2023/09/28 04:10:07;;;;;;;16.98;2.15;;;;;;;;;;4956526;28;20223;-37
2023/09/28 04:12:35;;;;;;;21.37;2.77;;;;;;;;;;4970025;28;20050;-38
2023/09/28 04:15:05;;;;;;;11.85;1.40;;;;;;;;;;4953306;28;20738;-37
2023/09/28 04:17:36;;;;;;;14.60;2.25;;;;;;;;;;4979301;28;20035;-37
2023/09/28 04:20:07;;;;;;;12.70;1.60;;;;;;;;;;4969232;28;20054;-38
2023/09/28 04:22:35;;;;;;;18.27;2.58;;;;;;;;;;4958519;28;20085;-37
2023/09/28 04:25:05;;;;;;;15.20;1.40;;;;;;;;;;4963296;28;20386;-38
2023/09/28 04:27:34;;;;;;;13.93;1.45;;;;;;;;;;4979448;28;20042;-38
2023/09/28 04:30:02;;;;;;;15.38;2.10;;;;;;;;;;4953310;28;20038;-37
2023/09/28 04:32:33;;;;;;;15.15;1.85;;;;;;;;;;4970873;28;20049;-37
2023/09/28 04:35:03;;;;;;;12.02;1.98;;;;;;;;;;4951374;28;20042;-37
2023/09/28 04:37:31;;;;;;;11.67;1.93;;;;;;;;;;4965185;28;21263;-37
2023/09/28 04:39:59;;;;;;;14.07;2.35;;;;;;;;;;4964772;28;20628;-37
2023/09/28 04:42:27;;;;;;;19.67;2.42;;;;;;;;;;4958685;28;20104;-37
2023/09/28 04:44:54;;;;;;;12.48;1.58;;;;;;;;;;4961730;28;20044;-38
2023/09/28 04:47:22;;;;;;;14.95;1.77;;;;;;;;;;4967663;28;20057;-37
2023/09/28 04:49:52;;;;;;;15.83;2.40;;;;;;;;;;4953061;28;20034;-37
2023/09/28 04:52:22;;;;;;;19.08;2.22;;;;;;;;;;4959842;28;20065;-37
2023/09/28 04:54:51;;;;;;;14.95;2.35;;;;;;;;;;4958112;28;20038;-38
2023/09/28 04:57:20;;;;;;;18.30;2.05;;;;;;;;;;4954139;28;20053;-37
2023/09/28 04:59:47;;;;;;;19.20;2.75;;;;;;;;;;4963540;28;20145;-41
2023/09/28 05:02:19;;;;;;;15.43;2.13;;;;;;;;;;4963389;28;20042;-37
2023/09/28 05:04:48;;;;;;;15.15;1.92;;;;;;;;;;4966968;28;20113;-37
2023/09/28 05:07:17;;;;;;;14.02;2.00;;;;;;;;;;4951172;28;20516;-37
2023/09/28 05:09:44;;;;;;;18.27;2.05;;;;;;;;;;4965760;28;20492;-37
2023/09/28 05:12:12;;;;;;;15.73;2.05;;;;;;;;;;4953116;28;20042;-37
2023/09/28 05:14:41;;;;;;;21.50;2.13;;;;;;;;;;4967319;28;20046;-37
2023/09/28 05:17:09;;;;;;;11.70;1.70;;;;;;;;;;4954716;28;20041;-37
2023/09/28 05:19:37;;;;;;;15.55;2.13;;;;;;;;;;4962668;28;20038;-38
2023/09/28 05:22:10;;;;;;;14.43;2.28;;;;;;;;;;4956504;28;20049;-38
2023/09/28 05:24:39;;;;;;;19.25;2.20;;;;;;;;;;4965771;28;20046;-37
2023/09/28 05:27:07;;;;;;;15.00;2.13;;;;;;;;;;4952298;28;20050;-38
2023/09/28 05:29:34;;;;;;;13.65;1.55;;;;;;;;;;4960880;28;20038;-38
2023/09/28 05:32:02;;;;;;;11.38;2.05;;;;;;;;;;4950552;28;20499;-37
2023/09/28 05:34:31;;;;;;;15.30;2.25;;;;;;;;;;4965519;28;20494;-38
2023/09/28 05:36:59;;;;;;;19.00;2.05;;;;;;;;;;4965227;28;20034;-37
2023/09/28 05:39:29;;;;;;;12.90;2.03;;;;;;;;;;4960687;28;20415;-38
2023/09/28 05:41:58;;;;;;;16.45;2.20;;;;;;;;;;4957870;28;20279;-37
2023/09/28 05:44:26;;;;;;;15.63;1.95;;;;;;;;;;4969466;28;20058;-38
2023/09/28 05:46:54;;;;;;;17.02;2.45;;;;;;;;;;4954618;28;20044;-37
2023/09/28 05:49:21;;;;;;;17.65;1.80;;;;;;;;;;4959830;28;20066;-37
2023/09/28 05:51:49;;;;;;;18.77;2.63;;;;;;;;;;4952413;28;20129;-37
2023/09/28 05:54:17;;;;;;;18.95;3.17;;;;;;;;;;4962348;28;20047;-38
2023/09/28 05:56:45;;;;;;;15.05;2.30;;;;;;;;;;4950392;28;20471;-37
2023/09/28 05:59:16;;;;;;;14.27;2.38;;;;;;;;;;4962040;28;20046;-38
2023/09/28 06:01:44;;;;;;;13.38;2.35;;;;;;;;;;4961783;28;20504;-37
2023/09/28 06:04:12;;;;;;;15.17;2.07;;;;;;;;;;4946473;28;20675;-38
2023/09/28 06:06:40;;;;;;;14.13;1.92;;;;;;;;;;4961663;28;20089;-38
2023/09/28 06:09:07;;;;;;;15.45;2.75;;;;;;;;;;4940900;28;20054;-37
2023/09/28 06:11:35;;;;;;;13.23;1.95;;;;;;;;;;4959838;28;20045;-37
2023/09/28 06:14:03;;;;;;;17.65;2.20;;;;;;;;;;4954215;28;20759;-38
2023/09/28 06:16:38;;;;;;;12.53;2.17;;;;;;;;;;4950138;28;20050;-38
2023/09/28 06:19:05;;;;;;;14.45;2.22;;;;;;;;;;4957668;28;20540;-37
2023/09/28 06:21:33;;;;;;;15.55;2.10;;;;;;;;;;4953246;28;20057;-39
2023/09/28 06:24:01;;;;;;;13.05;1.73;;;;;;;;;;4950171;28;20142;-37
2023/09/28 06:26:33;;;;;;;13.20;1.92;;;;;;;;;;4949880;28;20121;-37
2023/09/28 06:29:09;;;;;;;12.40;1.80;;;;;;;;;;4960690;28;20431;-37
2023/09/28 06:31:39;;;;;;;12.82;2.25;;;;;;;;;;4956083;28;20497;-37
2023/09/28 06:34:07;;;;;;;10.70;1.60;;;;;;;;;;4951937;28;20520;-37
2023/09/28 06:36:34;;;;;;;15.30;2.05;;;;;;;;;;4964814;28;20841;-37
2023/09/28 06:39:05;;;;;;;12.77;2.20;;;;;;;;;;4959302;28;20422;-37
2023/09/28 06:41:33;;;;;;;15.83;1.40;;;;;;;;;;4958373;28;20038;-37
2023/09/28 06:44:01;;;;;;;13.68;1.33;;;;;;;;;;4957413;28;20038;-37
2023/09/28 06:46:29;;;;;;;14.18;1.25;;;;;;;;;;4955550;28;20046;-37
2023/09/28 06:48:59;;;;;;;15.93;1.60;;;;;;;;;;4953517;28;20065;-37
2023/09/28 06:51:27;;;;;;;12.90;1.65;;;;;;;;;;4958123;28;20489;-37
2023/09/28 06:53:55;;;;;;;12.17;1.83;;;;;;;;;;4956178;28;20050;-37
2023/09/28 06:56:23;;;;;;;11.45;1.95;;;;;;;;;;4965162;28;20030;-38
2023/09/28 06:58:51;;;;;;;10.98;1.63;;;;;;;;;;4963147;28;20066;-37
2023/09/28 07:01:19;;;;;;;11.95;1.45;;;;;;;;;;4963746;28;20054;-38
2023/09/28 07:03:52;;;;;;;12.35;1.70;;;;;;;;;;4959961;28;20050;-37
2023/09/28 07:06:24;;;;;;;12.53;1.97;;;;;;;;;;4968011;28;20030;-39
2023/09/28 07:08:53;;;;;;;17.90;2.03;;;;;;;;;;4946377;28;20038;-37
2023/09/28 07:11:21;;;;;;;15.95;1.77;;;;;;;;;;4968686;28;20706;-37
2023/09/28 07:13:49;;;;;;;19.98;2.05;;;;;;;;;;4954607;28;20511;-37
2023/09/28 07:16:17;;;;;;;15.48;1.80;;;;;;;;;;4916598;28;20057;-37
2023/09/28 07:18:44;;;;;;;17.83;1.60;;;;;;;;;;4935989;28;22561;-37
2023/09/28 07:21:12;;;;;;;12.00;1.90;;;;;;;;;;4964654;28;20050;-37
2023/09/28 07:23:41;;;;;;;14.95;2.72;;;;;;;;;;4954455;28;20055;-38
2023/09/28 07:26:14;;;;;;;17.92;1.90;;;;;;;;;;4964503;28;20039;-38
2023/09/28 07:28:42;;;;;;;11.95;1.20;;;;;;;;;;4952419;28;20117;-37
2023/09/28 07:31:11;;;;;;;12.60;1.80;;;;;;;;;;4967296;28;20046;-37
2023/09/28 07:33:40;;;;;;;17.63;2.60;;;;;;;;;;4946421;28;20052;-37
2023/09/28 07:36:08;;;;;;;12.10;1.50;;;;;;;;;;4953531;28;20082;-37
2023/09/28 07:38:36;;;;;;;12.15;2.22;;;;;;;;;;4943775;28;20456;-37
2023/09/28 07:41:05;;;;;;;14.50;2.17;;;;;;;;;;4940369;28;20493;-37
2023/09/28 07:43:51;;;;;;;12.20;2.13;;;;;;;;;;4955133;28;20050;-37
2023/09/28 07:46:19;;;;;;;14.50;2.50;;;;;;;;;;4963325;28;20056;-38
2023/09/28 07:48:47;;;;;;;12.73;2.45;;;;;;;;;;4945760;28;20531;-37
2023/09/28 07:51:15;;;;;;;17.25;3.30;;;;;;;;;;4951748;28;20488;-38
2023/09/28 07:53:44;;;;;;;17.17;2.53;;;;;;;;;;4606812;28;10000613;-37
2023/09/28 07:56:13;;;;;;;19.42;2.67;;;;;;;;;;4948794;28;20058;-37
2023/09/28 07:58:41;;;;;;;20.38;2.13;;;;;;;;;;4954817;28;20863;-37
2023/09/28 08:01:09;;;;;;;15.27;2.90;;;;;;;;;;4959383;28;20042;-39
2023/09/28 08:03:37;;;;;;;15.57;2.03;;;;;;;;;;4951185;28;20066;-38
2023/09/28 08:06:05;;;;;;;15.17;2.63;;;;;;;;;;4949500;28;20046;-38
2023/09/28 08:08:33;;;;;;;22.90;2.97;;;;;;;;;;4961082;28;20042;-38
2023/09/28 08:11:01;;;;;;;15.18;2.40;;;;;;;;;;4952566;28;20127;-37
2023/09/28 08:13:35;;;;;;;22.03;2.13;;;;;;;;;;4617000;28;9999817;-37
2023/09/28 08:16:04;;;;;;;30.60;2.83;;;;;;;;;;4938494;28;20046;-37
2023/09/28 08:18:31;;;;;;;18.55;3.08;;;;;;;;;;4947181;28;20121;-37
2023/09/28 08:20:59;;;;;;;14.93;2.33;;;;;;;;;;4931243;28;20105;-38
2023/09/28 08:23:37;;;;;;;19.43;2.20;;;;;;;;;;4945841;28;20038;-38
2023/09/28 08:26:09;;;;;;;24.45;2.30;;;;;;;;;;4936520;28;20046;-37
2023/09/28 08:28:39;;;;;;;18.17;2.83;;;;;;;;;;4935970;28;20027;-36
2023/09/28 08:31:06;;;;;;;22.25;2.20;;;;;;;;;;4938825;28;20069;-37
2023/09/28 08:33:34;;;;;;;19.65;2.35;;;;;;;;;;4938350;28;20042;-37
2023/09/28 08:36:07;;;;;;;21.67;3.23;;;;;;;;;;4936536;28;20097;-38
2023/09/28 08:38:37;;;;;;;17.27;2.90;;;;;;;;;;4947643;28;20042;-37
2023/09/28 08:41:26;;;;;;;14.05;3.45;;;;;;;;;;4939206;28;20145;-37
2023/09/28 08:44:03;;;;;;;18.17;3.05;;;;;;;;;;4935794;28;20090;-37
2023/09/28 08:46:32;;;;;;;25.98;4.05;;;;;;;;;;4946756;28;20069;-37
2023/09/28 08:49:14;;;;;;;17.27;3.70;;;;;;;;;;4950866;28;20062;-37
2023/09/28 08:51:45;;;;;;;20.70;4.25;;;;;;;;;;4891952;28;20305;-37
2023/09/28 08:54:28;;;;;;;19.80;3.83;;;;;;;;;;4929175;28;20113;-37
2023/09/28 08:56:57;;;;;;;18.95;3.45;;;;;;;;;;4891312;28;20584;-37
2023/09/28 08:59:28;;;;;;;18.52;3.47;;;;;;;;;;4918951;28;20050;-37
2023/09/28 09:01:57;;;;;;;22.80;2.87;;;;;;;;;;4939706;28;20146;-37
2023/09/28 09:04:25;;;;;;;26.42;3.75;;;;;;;;;;4930320;28;20436;-37
2023/09/28 09:06:54;;;;;;;24.02;3.10;;;;;;;;;;4938119;28;20042;-38
2023/09/28 09:09:24;;;;;;;25.20;3.67;;;;;;;;;;4924006;28;20137;-37
2023/09/28 09:11:52;;;;;;;24.27;4.20;;;;;;;;;;4940159;28;20050;-37
2023/09/28 09:14:30;;;;;;;24.17;3.63;;;;;;;;;;4923549;28;20074;-37
2023/09/28 09:16:58;;;;;;;24.85;4.13;;;;;;;;;;4941489;28;20049;-37
2023/09/28 09:19:29;;;;;;;17.88;3.67;;;;;;;;;;4924934;28;20054;-37
2023/09/28 09:21:57;;;;;;;24.65;4.38;;;;;;;;;;4927209;28;22796;-38
2023/09/28 09:24:25;;;;;;;24.80;4.18;;;;;;;;;;4938041;28;20090;-37
2023/09/28 09:26:55;;;;;;;20.80;3.70;;;;;;;;;;4933647;28;20042;-37
2023/09/28 09:29:23;;;;;;;19.25;3.28;;;;;;;;;;4929687;28;20046;-37
2023/09/28 09:31:53;;;;;;;26.83;4.50;;;;;;;;;;4924365;28;20117;-37
2023/09/28 09:34:21;;;;;;;21.95;3.67;;;;;;;;;;4951975;28;20078;-37
2023/09/28 09:36:53;;;;;;;21.02;2.97;;;;;;;;;;4942204;28;20050;-37
2023/09/28 09:39:21;;;;;;;20.40;3.40;;;;;;;;;;4936412;28;20046;-37
2023/09/28 09:41:49;;;;;;;26.23;3.30;;;;;;;;;;4915545;28;20030;-37
2023/09/28 09:44:19;;;;;;;22.13;3.97;;;;;;;;;;4919919;28;20400;-37
2023/09/28 09:46:48;;;;;;;24.70;4.28;;;;;;;;;;4946814;28;20061;-37
2023/09/28 09:49:18;;;;;;;20.33;2.80;;;;;;;;;;4936567;28;20507;-37
2023/09/28 09:51:49;;;;;;;19.73;2.83;;;;;;;;;;4921851;28;20046;-38
2023/09/28 09:54:18;;;;;;;24.75;3.55;;;;;;;;;;4944661;28;20061;-37
2023/09/28 09:56:47;;;;;;;20.17;3.22;;;;;;;;;;4930690;28;20045;-37
2023/09/28 09:59:15;;;;;;;22.15;2.83;;;;;;;;;;4938683;28;20053;-37
2023/09/28 10:01:46;;;;;;;17.48;3.20;;;;;;;;;;4932915;28;20042;-37
2023/09/28 10:04:16;;;;;;;16.93;2.87;;;;;;;;;;4938408;28;20145;-37
2023/09/28 10:06:51;;;;;;;23.67;2.85;;;;;;;;;;4935048;28;20078;-37
2023/09/28 10:09:19;;;;;;;27.15;3.60;;;;;;;;;;4896544;28;20050;-37
2023/09/28 10:11:49;;;;;;;16.55;2.65;;;;;;;;;;4905073;28;20053;-37
2023/09/28 10:14:21;;;;;;;19.60;2.90;;;;;;;;;;4739477;28;10000807;-37
2023/09/28 10:16:50;;;;;;;15.43;3.28;;;;;;;;;;4939483;28;21192;-38
2023/09/28 10:19:19;;;;;;;16.83;2.88;;;;;;;;;;4937215;28;21293;-37
2023/09/28 10:21:47;;;;;;;21.70;2.80;;;;;;;;;;4931863;28;20116;-37
2023/09/28 10:24:17;;;;;;;25.27;4.43;;;;;;;;;;4930348;28;20046;-37
2023/09/28 10:26:50;;;;;;;19.73;2.97;;;;;;;;;;4934715;28;20073;-37
2023/09/28 10:29:20;;;;;;;15.57;3.30;;;;;;;;;;4939938;28;20508;-37
2023/09/28 10:31:47;;;;;;;23.63;4.03;;;;;;;;;;4921342;28;20088;-37
2023/09/28 10:34:26;;;;;;;13.40;3.85;;;;;;;;;;4935894;28;20501;-37
2023/09/28 10:37:18;;;;;;;14.67;3.20;;;;;;;;;;4940629;28;20185;-37
2023/09/28 10:39:51;;;;;;;21.48;3.35;;;;;;;;;;4940972;28;20072;-37
2023/09/28 10:42:20;;;;;;;17.83;3.38;;;;;;;;;;4934283;28;20043;-37
2023/09/28 10:44:49;;;;;;;14.38;3.22;;;;;;;;;;4930050;28;20046;-37
2023/09/28 10:47:16;;;;;;;18.83;3.40;;;;;;;;;;4934961;28;20046;-37
2023/09/28 10:49:45;;;;;;;24.97;3.63;;;;;;;;;;4940332;28;20046;-37
2023/09/28 10:52:12;;;;;;;17.27;3.65;;;;;;;;;;4920763;28;21652;-37
2023/09/28 10:54:41;;;;;;;17.98;3.22;;;;;;;;;;4939464;28;20492;-37
2023/09/28 10:57:11;;;;;;;19.15;4.07;;;;;;;;;;4942690;28;21121;-37
2023/09/28 10:59:41;;;;;;;19.40;3.65;;;;;;;;;;4932233;28;20204;-37
2023/09/28 11:02:10;;;;;;;21.07;3.27;;;;;;;;;;4929935;28;21548;-37
2023/09/28 11:04:38;;;;;;;23.35;3.95;;;;;;;;;;4942785;28;20053;-37
2023/09/28 11:07:19;;;;;;;19.83;3.45;;;;;;;;;;4951127;28;20049;-37
2023/09/28 11:09:46;;;;;;;16.33;2.92;;;;;;;;;;4939007;28;20648;-37
2023/09/28 11:12:15;;;;;;;14.50;2.35;;;;;;;;;;4937068;28;20065;-39
2023/09/28 11:14:46;;;;;;;15.90;2.57;;;;;;;;;;4936066;28;20513;-37
2023/09/28 11:17:14;;;;;;;13.77;2.50;;;;;;;;;;4931397;28;20053;-36
2023/09/28 11:19:42;;;;;;;23.45;3.00;;;;;;;;;;4947093;28;22070;-39
2023/09/28 11:22:11;;;;;;;17.48;2.63;;;;;;;;;;4926279;28;20074;-38
2023/09/28 11:24:40;;;;;;;19.15;3.45;;;;;;;;;;4941995;28;20050;-37
2023/09/28 11:27:08;;;;;;;21.47;3.23;;;;;;;;;;4935265;28;20065;-36
2023/09/28 11:29:39;;;;;;;17.33;3.90;;;;;;;;;;4943556;28;20054;-37
2023/09/28 11:32:07;;;;;;;21.65;2.75;;;;;;;;;;4918229;28;20394;-37
2023/09/28 11:34:38;;;;;;;21.35;3.47;;;;;;;;;;4938806;28;20467;-37
2023/09/28 11:37:11;;;;;;;22.17;3.45;;;;;;;;;;4929741;28;20041;-37
2023/09/28 11:39:39;;;;;;;22.10;3.50;;;;;;;;;;4934524;28;20047;-37
2023/09/28 11:42:08;;;;;;;19.85;3.42;;;;;;;;;;4923577;28;20193;-38
2023/09/28 11:44:37;;;;;;;21.60;2.78;;;;;;;;;;4924776;28;20034;-37
2023/09/28 11:47:05;;;;;;;17.95;3.38;;;;;;;;;;4936986;28;20046;-37
2023/09/28 11:49:36;;;;;;;13.23;2.83;;;;;;;;;;4938392;28;20069;-38
2023/09/28 11:52:04;;;;;;;12.97;2.67;;;;;;;;;;4927730;28;20127;-37
2023/09/28 11:54:32;;;;;;;18.90;3.00;;;;;;;;;;4918868;28;20039;-37
2023/09/28 11:57:00;;;;;;;17.73;3.45;;;;;;;;;;4946468;28;20130;-37
2023/09/28 11:59:28;;;;;;;27.10;4.93;;;;;;;;;;4927274;28;20051;-37
2023/09/28 12:01:57;;;;;;;18.60;3.45;;;;;;;;;;4943522;28;20510;-37
2023/09/28 12:04:26;;;;;;;23.07;3.90;;;;;;;;;;4929334;28;20051;-38
2023/09/28 12:06:54;;;;;;;12.23;2.03;;;;;;;;;;4945476;28;20057;-37
2023/09/28 12:09:22;;;;;;;22.50;4.07;;;;;;;;;;4931239;28;20046;-38
2023/09/28 12:11:50;;;;;;;18.90;3.45;;;;;;;;;;4940945;28;20056;-41
2023/09/28 12:14:19;;;;;;;22.58;3.65;;;;;;;;;;4939459;28;20125;-37
2023/09/28 12:16:50;;;;;;;22.03;3.63;;;;;;;;;;4943757;28;20053;-38
2023/09/28 12:19:23;;;;;;;17.55;2.80;;;;;;;;;;4621195;28;10001131;-37
2023/09/28 12:21:51;;;;;;;15.75;3.10;;;;;;;;;;4882673;28;20053;-38
2023/09/28 12:24:19;;;;;;;20.52;3.10;;;;;;;;;;4912919;28;20165;-38
2023/09/28 12:26:48;;;;;;;14.27;3.33;;;;;;;;;;4893927;28;20281;-37
2023/09/28 12:29:17;;;;;;;14.90;2.80;;;;;;;;;;4906122;28;20059;-37
2023/09/28 12:31:45;;;;;;;23.00;3.25;;;;;;;;;;4894004;28;20046;-37
2023/09/28 12:34:13;;;;;;;15.23;2.70;;;;;;;;;;4910582;28;20569;-37
2023/09/28 12:36:43;;;;;;;15.00;2.80;;;;;;;;;;4900790;28;20150;-38
2023/09/28 12:39:11;;;;;;;23.25;3.90;;;;;;;;;;4898082;28;20493;-38
2023/09/28 12:41:39;;;;;;;16.50;3.03;;;;;;;;;;4896750;28;20061;-37
2023/09/28 12:44:13;;;;;;;15.43;2.47;;;;;;;;;;4899421;28;20051;-37
2023/09/28 12:46:40;;;;;;;12.07;2.30;;;;;;;;;;4882928;28;21191;-37
2023/09/28 12:49:15;;;;;;;16.17;2.75;;;;;;;;;;4562131;28;9999876;-37
2023/09/28 12:51:47;;;;;;;16.65;2.72;;;;;;;;;;4901542;28;20048;-37
2023/09/28 12:54:15;;;;;;;15.10;2.27;;;;;;;;;;4884457;28;20047;-37
2023/09/28 12:56:45;;;;;;;14.25;2.72;;;;;;;;;;4905308;28;20131;-37
2023/09/28 12:59:15;;;;;;;17.73;2.85;;;;;;;;;;4896702;28;20925;-38
2023/09/28 13:01:46;;;;;;;15.57;3.40;;;;;;;;;;4909236;28;20054;-38
2023/09/28 13:04:14;;;;;;;16.60;2.88;;;;;;;;;;4889723;28;20249;-37
2023/09/28 13:06:41;;;;;;;12.60;2.37;;;;;;;;;;4898469;28;20051;-37
2023/09/28 13:09:14;;;;;;;11.50;2.60;;;;;;;;;;4890349;28;20748;-37
2023/09/28 13:11:43;;;;;;;16.65;2.20;;;;;;;;;;4902857;28;20039;-37
2023/09/28 13:14:11;;;;;;;14.35;2.63;;;;;;;;;;4893044;28;20621;-37
2023/09/28 13:16:38;;;;;;;13.75;3.25;;;;;;;;;;4876592;28;20057;-37
2023/09/28 13:19:08;;;;;;;17.30;3.17;;;;;;;;;;4866129;28;20054;-37
2023/09/28 13:21:38;;;;;;;19.67;2.80;;;;;;;;;;4908400;28;20051;-37
2023/09/28 13:24:07;;;;;;;18.00;2.28;;;;;;;;;;4917495;28;20050;-37
2023/09/28 13:26:45;;;;;;;18.73;3.38;;;;;;;;;;4913679;28;20529;-37
2023/09/28 13:29:13;;;;;;;16.40;3.05;;;;;;;;;;4912891;28;20712;-41
2023/09/28 13:31:43;;;;;;;17.83;3.10;;;;;;;;;;4927122;28;20902;-37
2023/09/28 13:34:11;;;;;;;16.17;3.17;;;;;;;;;;4939211;28;20057;-38
2023/09/28 13:36:39;;;;;;;17.70;2.65;;;;;;;;;;4941871;28;20066;-37
2023/09/28 13:39:14;;;;;;;18.73;3.78;;;;;;;;;;4940615;28;20046;-37
2023/09/28 13:41:43;;;;;;;21.52;3.38;;;;;;;;;;4934570;28;20050;-37
2023/09/28 13:44:12;;;;;;;15.07;2.87;;;;;;;;;;4949896;28;20125;-37
2023/09/28 13:46:40;;;;;;;19.42;2.72;;;;;;;;;;4929479;28;22892;-37
2023/09/28 13:49:08;;;;;;;18.30;3.35;;;;;;;;;;4942398;28;20515;-38
2023/09/28 13:51:35;;;;;;;18.88;3.30;;;;;;;;;;4930264;28;20690;-37
2023/09/28 13:54:03;;;;;;;16.25;3.10;;;;;;;;;;4946823;28;20048;-37
2023/09/28 13:56:34;;;;;;;21.63;3.73;;;;;;;;;;4921982;28;20042;-38
2023/09/28 13:59:05;;;;;;;23.73;3.25;;;;;;;;;;4942738;28;20431;-38
2023/09/28 14:01:34;;;;;;;17.55;3.03;;;;;;;;;;4935019;28;20057;-41
2023/09/28 14:04:05;;;;;;;17.20;2.78;;;;;;;;;;4933438;28;20444;-38
2023/09/28 14:06:33;;;;;;;20.58;3.33;;;;;;;;;;4931402;28;20050;-38
2023/09/28 14:09:02;;;;;;;18.30;2.70;;;;;;;;;;4935028;28;20045;-37
2023/09/28 14:11:30;;;;;;;21.70;3.72;;;;;;;;;;4942667;28;20126;-37
2023/09/28 14:13:59;;;;;;;18.15;2.38;;;;;;;;;;4938073;28;20046;-37
2023/09/28 14:16:27;;;;;;;16.17;3.28;;;;;;;;;;4939058;28;20061;-38
2023/09/28 14:18:56;;;;;;;16.15;2.92;;;;;;;;;;4941084;28;20042;-38
2023/09/28 14:21:26;;;;;;;25.47;3.70;;;;;;;;;;4935424;28;20066;-37
2023/09/28 14:23:54;;;;;;;23.30;3.63;;;;;;;;;;4936246;28;20046;-37
2023/09/28 14:26:23;;;;;;;22.92;4.03;;;;;;;;;;4958386;28;20047;-38
2023/09/28 14:28:51;;;;;;;19.92;3.67;;;;;;;;;;4930419;28;20133;-37
2023/09/28 14:31:19;;;;;;;15.10;2.60;;;;;;;;;;4936095;28;20113;-37
2023/09/28 14:33:47;;;;;;;18.73;2.73;;;;;;;;;;4943297;28;20074;-38
2023/09/28 14:36:16;;;;;;;18.50;2.88;;;;;;;;;;4937248;28;20501;-38
2023/09/28 14:38:44;;;;;;;21.23;3.40;;;;;;;;;;4943315;28;20047;-37
2023/09/28 14:41:12;;;;;;;12.50;3.10;;;;;;;;;;4930415;28;20046;-38